Time;durP1;ratioP1;P1;durP2;ratioP2;P2;SDS_P1;SDS_P2;PMS_P1;PMS_P2;Temp;Humidity;BMP_temperature;BMP_pressure;BME280_temperature;BME280_humidity;BME280_pressure;Samples;Min_cycle;Max_cycle;Signal;HPM_P1;HPM_P2
2020/12/14 00:02:25;;;;;;;28.08;26.17;;;;;;;;;;5063994;28;20233;-81
2020/12/14 00:04:54;;;;;;;28.25;26.15;;;;;;;;;;5055636;28;20259;-81
2020/12/14 00:07:20;;;;;;;29.52;27.23;;;;;;;;;;5076579;28;20190;-81
2020/12/14 00:09:47;;;;;;;29.75;27.65;;;;;;;;;;5076584;28;20219;-80
2020/12/14 00:12:14;;;;;;;28.50;26.02;;;;;;;;;;5076787;28;20190;-81
2020/12/14 00:14:45;;;;;;;29.17;27.05;;;;;;;;;;5076692;28;20188;-81
2020/12/14 00:17:12;;;;;;;28.38;26.23;;;;;;;;;;5076291;28;20635;-80
2020/12/14 00:19:38;;;;;;;28.10;25.60;;;;;;;;;;5076313;28;20187;-81
2020/12/14 00:22:06;;;;;;;27.92;25.77;;;;;;;;;;5076417;28;20208;-81
2020/12/14 00:24:33;;;;;;;26.80;24.90;;;;;;;;;;5076712;28;20200;-80
2020/12/14 00:27:05;;;;;;;26.55;24.45;;;;;;;;;;5076140;28;20185;-81
2020/12/14 00:29:32;;;;;;;27.38;25.33;;;;;;;;;;5076309;28;20221;-80
2020/12/14 00:32:00;;;;;;;26.98;24.95;;;;;;;;;;5058292;28;20193;-80
2020/12/14 00:34:26;;;;;;;26.95;24.88;;;;;;;;;;5076247;28;20227;-81
2020/12/14 00:36:53;;;;;;;26.13;24.23;;;;;;;;;;5076431;28;20194;-81
2020/12/14 00:39:20;;;;;;;27.23;24.90;;;;;;;;;;5076075;28;20217;-81
2020/12/14 00:41:47;;;;;;;26.90;24.83;;;;;;;;;;5075980;28;20184;-81
2020/12/14 00:44:14;;;;;;;27.13;25.23;;;;;;;;;;5076184;28;20193;-80
2020/12/14 00:46:41;;;;;;;26.30;24.17;;;;;;;;;;5076100;28;20640;-81
2020/12/14 00:49:09;;;;;;;26.35;24.00;;;;;;;;;;5075799;28;20248;-81
2020/12/14 00:51:36;;;;;;;25.20;23.50;;;;;;;;;;5057847;28;20218;-81
2020/12/14 00:54:02;;;;;;;27.40;25.30;;;;;;;;;;5075887;28;20213;-81
2020/12/14 00:56:29;;;;;;;27.55;25.45;;;;;;;;;;5075875;28;20186;-81
2020/12/14 00:58:56;;;;;;;26.70;24.40;;;;;;;;;;5075718;28;20187;-81
2020/12/14 01:01:23;;;;;;;26.98;24.92;;;;;;;;;;5075523;28;20568;-81
2020/12/14 01:03:50;;;;;;;26.23;24.30;;;;;;;;;;5075506;28;20189;-80
2020/12/14 01:06:17;;;;;;;26.70;24.50;;;;;;;;;;5076047;28;20207;-80
2020/12/14 01:08:44;;;;;;;25.85;24.05;;;;;;;;;;5075908;28;20184;-81
2020/12/14 01:11:11;;;;;;;25.48;23.67;;;;;;;;;;5075487;28;20221;-80
2020/12/14 01:13:38;;;;;;;26.17;24.10;;;;;;;;;;5075404;28;20199;-80
2020/12/14 01:16:08;;;;;;;27.17;25.20;;;;;;;;;;5075523;28;20251;-81
2020/12/14 01:18:36;;;;;;;25.40;23.60;;;;;;;;;;5074948;28;20287;-81
2020/12/14 01:21:03;;;;;;;25.60;23.90;;;;;;;;;;5075215;28;20248;-80
2020/12/14 01:23:31;;;;;;;25.83;23.95;;;;;;;;;;5057999;28;20187;-81
2020/12/14 01:25:58;;;;;;;26.63;24.70;;;;;;;;;;5075382;28;20194;-81
2020/12/14 01:28:25;;;;;;;25.85;24.05;;;;;;;;;;5075006;28;20197;-81
2020/12/14 01:30:51;;;;;;;25.58;23.88;;;;;;;;;;5074874;28;20281;-81
2020/12/14 01:33:18;;;;;;;29.52;24.48;;;;;;;;;;5075335;28;20200;-80
2020/12/14 01:35:45;;;;;;;26.70;24.50;;;;;;;;;;5074824;28;20199;-80
2020/12/14 01:38:12;;;;;;;25.77;23.98;;;;;;;;;;5057432;28;20606;-81
2020/12/14 01:40:40;;;;;;;24.95;23.25;;;;;;;;;;5074453;28;20206;-80
2020/12/14 01:43:07;;;;;;;28.33;25.58;;;;;;;;;;5075726;28;20200;-81
2020/12/14 01:45:34;;;;;;;26.70;24.10;;;;;;;;;;5074669;28;20699;-81
2020/12/14 01:48:02;;;;;;;26.25;24.20;;;;;;;;;;5074950;28;20192;-80
2020/12/14 01:50:29;;;;;;;27.85;25.90;;;;;;;;;;5074393;28;20229;-81
2020/12/14 01:52:59;;;;;;;26.02;23.95;;;;;;;;;;5074614;28;20275;-80
2020/12/14 01:55:28;;;;;;;24.95;23.25;;;;;;;;;;5074811;28;20290;-81
2020/12/14 01:57:56;;;;;;;26.05;24.15;;;;;;;;;;5074769;28;20200;-81
2020/12/14 02:00:22;;;;;;;24.88;22.92;;;;;;;;;;5056541;28;20211;-81
2020/12/14 02:02:49;;;;;;;24.23;22.40;;;;;;;;;;5074464;28;20271;-80
2020/12/14 02:05:16;;;;;;;24.67;22.90;;;;;;;;;;5074390;28;20206;-81
2020/12/14 02:07:43;;;;;;;24.70;22.85;;;;;;;;;;5056772;28;20282;-81
2020/12/14 02:10:10;;;;;;;24.88;23.17;;;;;;;;;;5074250;28;20674;-81
2020/12/14 02:12:37;;;;;;;26.55;24.73;;;;;;;;;;5074196;28;20189;-81
2020/12/14 02:15:06;;;;;;;24.60;22.65;;;;;;;;;;5074123;28;20633;-81
2020/12/14 02:17:33;;;;;;;24.05;22.23;;;;;;;;;;5074277;28;20197;-81
2020/12/14 02:19:59;;;;;;;25.20;23.30;;;;;;;;;;5057135;28;20215;-81
2020/12/14 02:22:28;;;;;;;24.70;22.92;;;;;;;;;;5056204;28;20201;-81
2020/12/14 02:24:58;;;;;;;23.88;22.20;;;;;;;;;;5057040;28;20700;-81
2020/12/14 02:27:25;;;;;;;23.92;22.35;;;;;;;;;;5074018;28;20197;-81
2020/12/14 02:29:52;;;;;;;23.33;21.80;;;;;;;;;;5074304;28;20218;-80
2020/12/14 02:32:19;;;;;;;24.75;23.05;;;;;;;;;;5074057;28;20190;-81
2020/12/14 02:34:46;;;;;;;24.30;22.60;;;;;;;;;;5056245;28;20212;-81
2020/12/14 02:37:14;;;;;;;23.75;22.25;;;;;;;;;;5074047;28;20654;-81
2020/12/14 02:39:41;;;;;;;24.13;22.45;;;;;;;;;;5074264;28;20195;-81
2020/12/14 02:42:10;;;;;;;23.45;21.85;;;;;;;;;;5056242;28;20674;-81
2020/12/14 02:44:37;;;;;;;24.05;22.40;;;;;;;;;;5074028;28;20679;-81
2020/12/14 02:47:04;;;;;;;24.25;22.27;;;;;;;;;;5074128;28;20190;-81
2020/12/14 02:49:31;;;;;;;23.55;22.13;;;;;;;;;;5074203;28;20190;-81
2020/12/14 02:51:58;;;;;;;24.25;22.60;;;;;;;;;;5074330;28;20223;-81
2020/12/14 02:54:25;;;;;;;22.90;21.50;;;;;;;;;;5056149;28;20210;-81
2020/12/14 02:56:52;;;;;;;24.05;22.50;;;;;;;;;;5073852;28;20651;-81
2020/12/14 02:59:21;;;;;;;24.17;22.58;;;;;;;;;;5056366;28;20202;-81
2020/12/14 03:01:48;;;;;;;23.30;21.80;;;;;;;;;;5073337;28;20690;-81
2020/12/14 03:04:15;;;;;;;23.63;22.00;;;;;;;;;;5073788;28;20231;-81
2020/12/14 03:06:44;;;;;;;23.17;21.58;;;;;;;;;;5056167;28;20225;-81
2020/12/14 03:09:11;;;;;;;22.35;20.85;;;;;;;;;;5073780;28;20277;-81
2020/12/14 03:11:38;;;;;;;24.02;21.90;;;;;;;;;;5056194;28;20225;-81
2020/12/14 03:14:05;;;;;;;23.08;21.55;;;;;;;;;;5073987;28;20189;-81
2020/12/14 03:16:33;;;;;;;22.73;21.30;;;;;;;;;;5074026;28;20246;-81
2020/12/14 03:19:01;;;;;;;22.05;20.75;;;;;;;;;;5073346;28;20261;-80
2020/12/14 03:21:27;;;;;;;22.50;21.20;;;;;;;;;;5073383;28;20635;-81
2020/12/14 03:23:54;;;;;;;22.90;21.40;;;;;;;;;;5073796;28;20211;-81
2020/12/14 03:26:21;;;;;;;23.75;22.25;;;;;;;;;;5073953;28;20189;-81
2020/12/14 03:28:48;;;;;;;22.98;21.40;;;;;;;;;;5073950;28;20196;-81
2020/12/14 03:31:15;;;;;;;22.95;21.55;;;;;;;;;;5073572;28;20217;-81
2020/12/14 03:33:43;;;;;;;22.23;20.67;;;;;;;;;;5055900;28;20205;-81
2020/12/14 03:36:09;;;;;;;22.77;21.33;;;;;;;;;;5073788;28;20188;-80
2020/12/14 03:38:37;;;;;;;23.92;21.92;;;;;;;;;;5073676;28;20551;-81
2020/12/14 03:41:04;;;;;;;22.75;21.17;;;;;;;;;;5075815;28;20196;-81
2020/12/14 03:43:31;;;;;;;22.30;20.95;;;;;;;;;;5076832;28;20319;-81
2020/12/14 03:45:58;;;;;;;22.60;21.30;;;;;;;;;;5077240;28;20287;-81
2020/12/14 03:48:25;;;;;;;22.38;21.05;;;;;;;;;;5059568;28;20195;-81
2020/12/14 03:50:53;;;;;;;22.30;21.00;;;;;;;;;;5077150;28;20635;-81
2020/12/14 03:53:20;;;;;;;22.02;20.63;;;;;;;;;;5077497;28;20229;-81
2020/12/14 03:55:50;;;;;;;22.52;20.77;;;;;;;;;;5078045;28;20285;-81
2020/12/14 03:58:17;;;;;;;23.23;21.80;;;;;;;;;;5077648;28;20277;-81
2020/12/14 04:00:46;;;;;;;23.00;21.40;;;;;;;;;;5076699;28;20233;-81
2020/12/14 04:03:13;;;;;;;23.38;21.77;;;;;;;;;;5076904;28;20743;-81
2020/12/14 04:05:40;;;;;;;22.67;21.25;;;;;;;;;;5077138;28;20199;-81
2020/12/14 04:08:07;;;;;;;23.98;22.27;;;;;;;;;;5077033;28;20201;-80
2020/12/14 04:10:37;;;;;;;23.33;21.65;;;;;;;;;;5059201;28;20633;-81
2020/12/14 04:13:05;;;;;;;24.55;22.67;;;;;;;;;;5058782;28;20214;-81
2020/12/14 04:15:32;;;;;;;23.10;21.60;;;;;;;;;;5077120;28;20199;-81
2020/12/14 04:17:59;;;;;;;24.02;22.20;;;;;;;;;;5076884;28;20192;-81
2020/12/14 04:20:26;;;;;;;22.77;21.20;;;;;;;;;;5076650;28;20200;-81
2020/12/14 04:22:52;;;;;;;23.52;22.00;;;;;;;;;;5076395;28;20197;-81
2020/12/14 04:25:20;;;;;;;24.00;22.30;;;;;;;;;;5076385;28;20223;-81
2020/12/14 04:27:47;;;;;;;24.55;22.75;;;;;;;;;;5058625;28;20202;-81
2020/12/14 04:30:14;;;;;;;24.42;22.60;;;;;;;;;;5076109;28;20678;-81
2020/12/14 04:32:41;;;;;;;23.92;22.30;;;;;;;;;;5076477;28;20189;-81
2020/12/14 04:35:10;;;;;;;23.65;21.95;;;;;;;;;;5076752;28;20198;-81
2020/12/14 04:37:36;;;;;;;26.05;24.00;;;;;;;;;;5076458;28;20191;-81
2020/12/14 04:40:04;;;;;;;22.88;21.27;;;;;;;;;;5058839;28;20187;-81
2020/12/14 04:42:31;;;;;;;23.63;22.13;;;;;;;;;;5075628;28;20658;-82
2020/12/14 04:44:58;;;;;;;22.65;21.33;;;;;;;;;;5076522;28;20194;-81
2020/12/14 04:47:28;;;;;;;23.02;21.52;;;;;;;;;;5058099;28;20202;-81
2020/12/14 04:49:55;;;;;;;23.45;21.98;;;;;;;;;;5076157;28;20190;-81
2020/12/14 04:52:23;;;;;;;23.50;21.90;;;;;;;;;;5074720;28;20230;-81
2020/12/14 04:54:50;;;;;;;36.75;33.53;;;;;;;;;;5075896;28;20637;-81
2020/12/14 04:57:20;;;;;;;24.50;22.90;;;;;;;;;;5075742;28;20698;-80
2020/12/14 04:59:48;;;;;;;27.20;25.30;;;;;;;;;;5075816;28;20209;-81
2020/12/14 05:02:15;;;;;;;24.05;22.25;;;;;;;;;;5075473;28;20700;-81
2020/12/14 05:04:42;;;;;;;30.88;28.67;;;;;;;;;;5075593;28;20190;-81
2020/12/14 05:07:12;;;;;;;25.80;23.65;;;;;;;;;;5058108;28;20614;-81
2020/12/14 05:09:40;;;;;;;24.90;23.20;;;;;;;;;;5075937;28;20190;-81
2020/12/14 05:12:17;;;;;;;25.00;23.27;;;;;;;;;;5057825;28;20684;-81
2020/12/14 05:14:44;;;;;;;25.55;23.63;;;;;;;;;;5075299;28;20278;-81
2020/12/14 05:17:22;;;;;;;26.83;25.17;;;;;;;;;;5075385;28;20184;-81
2020/12/14 05:19:49;;;;;;;25.00;23.13;;;;;;;;;;5075849;28;20604;-81
2020/12/14 05:22:16;;;;;;;23.98;22.58;;;;;;;;;;5075374;28;20189;-81
2020/12/14 05:24:49;;;;;;;24.60;22.95;;;;;;;;;;5057778;28;20209;-81
2020/12/14 05:27:29;;;;;;;23.35;21.85;;;;;;;;;;5057896;28;20306;-81
2020/12/14 05:29:56;;;;;;;23.58;22.08;;;;;;;;;;5075089;28;20185;-81
2020/12/14 05:32:24;;;;;;;23.20;21.70;;;;;;;;;;5057158;28;20643;-81
2020/12/14 05:34:50;;;;;;;23.90;22.40;;;;;;;;;;5075366;28;20189;-81
2020/12/14 05:37:18;;;;;;;24.70;22.80;;;;;;;;;;5075253;28;20515;-81
2020/12/14 05:39:45;;;;;;;24.63;23.13;;;;;;;;;;5074864;28;20192;-80
2020/12/14 05:42:16;;;;;;;23.00;21.60;;;;;;;;;;5056861;28;20240;-80
2020/12/14 05:44:44;;;;;;;24.35;22.73;;;;;;;;;;5056904;28;20255;-80
2020/12/14 05:47:25;;;;;;;25.05;23.45;;;;;;;;;;5075488;28;20266;-80
2020/12/14 05:49:52;;;;;;;23.58;22.17;;;;;;;;;;5057263;28;20250;-81
2020/12/14 05:52:20;;;;;;;25.23;23.52;;;;;;;;;;5057287;28;20249;-81
2020/12/14 05:54:51;;;;;;;25.10;22.88;;;;;;;;;;5074597;28;20191;-81
2020/12/14 05:57:31;;;;;;;24.42;22.63;;;;;;;;;;5075047;28;20188;-81
2020/12/14 06:00:02;;;;;;;24.70;22.77;;;;;;;;;;5074788;28;20189;-81
2020/12/14 06:02:30;;;;;;;24.23;22.63;;;;;;;;;;5074291;28;20593;-81
2020/12/14 06:04:57;;;;;;;24.08;22.38;;;;;;;;;;5074635;28;20585;-81
2020/12/14 06:07:25;;;;;;;23.92;22.23;;;;;;;;;;5074563;28;20217;-81
2020/12/14 06:10:07;;;;;;;23.83;22.13;;;;;;;;;;5074283;28;20653;-80
2020/12/14 06:12:34;;;;;;;25.30;23.40;;;;;;;;;;5071964;28;20330;-80
2020/12/14 06:15:06;;;;;;;23.35;21.95;;;;;;;;;;5074364;28;20657;-80
2020/12/14 06:17:35;;;;;;;24.45;22.85;;;;;;;;;;5074540;28;20281;-80
2020/12/14 06:20:07;;;;;;;23.60;22.10;;;;;;;;;;5074619;28;20194;-81
2020/12/14 06:22:34;;;;;;;25.00;23.30;;;;;;;;;;5074228;28;20199;-80
2020/12/14 06:25:03;;;;;;;25.50;23.80;;;;;;;;;;5073669;28;20200;-80
2020/12/14 06:27:30;;;;;;;24.02;22.50;;;;;;;;;;5075117;28;20190;-81
2020/12/14 06:29:57;;;;;;;24.45;22.90;;;;;;;;;;5074232;28;20193;-81
2020/12/14 06:32:41;;;;;;;23.95;22.45;;;;;;;;;;5074353;28;20191;-81
2020/12/14 06:35:15;;;;;;;23.92;22.30;;;;;;;;;;5074094;28;20705;-81
2020/12/14 06:37:48;;;;;;;26.60;24.50;;;;;;;;;;5074419;28;20272;-80
2020/12/14 06:40:15;;;;;;;24.55;22.77;;;;;;;;;;5073835;28;20490;-81
2020/12/14 06:42:42;;;;;;;24.08;22.55;;;;;;;;;;5074653;28;20194;-81
2020/12/14 06:45:13;;;;;;;25.35;23.65;;;;;;;;;;5073844;28;20598;-81
2020/12/14 06:47:47;;;;;;;24.90;23.27;;;;;;;;;;5074183;28;20215;-81
2020/12/14 06:50:24;;;;;;;25.23;23.63;;;;;;;;;;5073813;28;20699;-82
2020/12/14 06:52:51;;;;;;;25.05;23.25;;;;;;;;;;5073346;28;20248;-80
2020/12/14 06:55:28;;;;;;;24.33;22.70;;;;;;;;;;5074131;28;20195;-81
2020/12/14 06:57:55;;;;;;;25.58;23.58;;;;;;;;;;5073850;28;20219;-81
2020/12/14 07:00:31;;;;;;;27.17;25.10;;;;;;;;;;5074072;28;20202;-81
2020/12/14 07:02:59;;;;;;;25.30;23.58;;;;;;;;;;5073733;28;20256;-81
2020/12/14 07:05:36;;;;;;;26.15;24.15;;;;;;;;;;5056114;28;20643;-82
2020/12/14 07:08:03;;;;;;;25.65;24.05;;;;;;;;;;5073658;28;20222;-81
2020/12/14 07:10:31;;;;;;;25.77;23.98;;;;;;;;;;5073594;28;20612;-81
2020/12/14 07:12:59;;;;;;;25.20;23.45;;;;;;;;;;5073612;28;20203;-80
2020/12/14 07:15:31;;;;;;;25.80;23.88;;;;;;;;;;5057799;28;20187;-80
2020/12/14 07:18:06;;;;;;;25.98;24.17;;;;;;;;;;5077602;28;20595;-80
2020/12/14 07:20:34;;;;;;;26.00;24.17;;;;;;;;;;5077614;28;20278;-81
2020/12/14 07:23:02;;;;;;;26.05;24.15;;;;;;;;;;5077768;28;20258;-81
2020/12/14 07:25:29;;;;;;;27.15;25.17;;;;;;;;;;5078128;28;20218;-81
2020/12/14 07:27:56;;;;;;;27.20;25.20;;;;;;;;;;5077210;28;20636;-81
2020/12/14 07:30:23;;;;;;;25.92;24.23;;;;;;;;;;5077314;28;20227;-82
2020/12/14 07:32:50;;;;;;;27.30;25.33;;;;;;;;;;5077651;28;20192;-81
2020/12/14 07:35:18;;;;;;;26.27;24.30;;;;;;;;;;5078050;28;20645;-81
2020/12/14 07:37:45;;;;;;;27.58;25.58;;;;;;;;;;5059660;28;20808;-81
2020/12/14 07:40:12;;;;;;;26.95;25.15;;;;;;;;;;5059472;28;20273;-81
2020/12/14 07:42:44;;;;;;;26.60;25.00;;;;;;;;;;5059768;28;20205;-85
2020/12/14 07:45:11;;;;;;;26.52;24.65;;;;;;;;;;5076619;28;20249;-79
2020/12/14 07:47:39;;;;;;;25.75;23.95;;;;;;;;;;5075942;28;20204;-78
2020/12/14 07:50:07;;;;;;;27.15;25.20;;;;;;;;;;5076581;28;20193;-79
2020/12/14 07:52:35;;;;;;;27.35;25.52;;;;;;;;;;5076891;28;20229;-81
2020/12/14 07:55:02;;;;;;;26.92;25.02;;;;;;;;;;5077227;28;20551;-82
2020/12/14 07:57:32;;;;;;;26.00;24.30;;;;;;;;;;5077084;28;20191;-82
2020/12/14 08:00:00;;;;;;;26.90;25.20;;;;;;;;;;5076695;28;20206;-82
2020/12/14 08:02:28;;;;;;;26.25;24.45;;;;;;;;;;5076855;28;20237;-83
2020/12/14 08:05:06;;;;;;;28.08;25.98;;;;;;;;;;5077148;28;20214;-82
2020/12/14 08:07:38;;;;;;;27.05;25.15;;;;;;;;;;5077029;28;20187;-81
2020/12/14 08:10:07;;;;;;;26.38;24.35;;;;;;;;;;5076421;28;20220;-81
2020/12/14 08:12:35;;;;;;;25.80;24.20;;;;;;;;;;5076592;28;20226;-82
2020/12/14 08:15:02;;;;;;;28.00;25.73;;;;;;;;;;5076784;28;20699;-81
2020/12/14 08:17:29;;;;;;;26.05;24.25;;;;;;;;;;5076784;28;20191;-81
2020/12/14 08:19:56;;;;;;;25.67;23.88;;;;;;;;;;5076687;28;20207;-81
2020/12/14 08:22:32;;;;;;;27.00;25.13;;;;;;;;;;5076554;28;20249;-82
2020/12/14 08:24:58;;;;;;;26.38;24.50;;;;;;;;;;5076890;28;20193;-82
2020/12/14 08:27:34;;;;;;;26.10;24.30;;;;;;;;;;5076890;28;20548;-82
2020/12/14 08:30:04;;;;;;;25.95;24.13;;;;;;;;;;5073543;28;20210;-81
2020/12/14 08:32:31;;;;;;;26.00;24.30;;;;;;;;;;5074580;28;20217;-81
2020/12/14 08:34:58;;;;;;;25.63;23.88;;;;;;;;;;5074801;28;20599;-81
2020/12/14 08:37:25;;;;;;;25.05;23.45;;;;;;;;;;5074352;28;20203;-79
2020/12/14 08:40:01;;;;;;;25.60;23.90;;;;;;;;;;5057422;28;20188;-81
2020/12/14 08:42:30;;;;;;;27.00;24.98;;;;;;;;;;5058290;28;20663;-81
2020/12/14 08:45:07;;;;;;;25.98;24.17;;;;;;;;;;5078816;28;20637;-79
2020/12/14 08:47:37;;;;;;;26.67;24.88;;;;;;;;;;5079671;28;20195;-81
2020/12/14 08:50:04;;;;;;;25.45;23.73;;;;;;;;;;5079935;28;20191;-81
2020/12/14 08:52:31;;;;;;;25.70;23.90;;;;;;;;;;5077047;28;20233;-82
2020/12/14 08:54:58;;;;;;;26.10;24.40;;;;;;;;;;5075994;28;20594;-82
2020/12/14 08:57:26;;;;;;;26.70;24.90;;;;;;;;;;5076289;28;20199;-83
2020/12/14 09:00:15;;;;;;;26.00;24.30;;;;;;;;;;5058097;28;20209;-82
2020/12/14 09:02:42;;;;;;;25.20;23.35;;;;;;;;;;5069787;28;20246;-84
2020/12/14 09:05:16;;;;;;;26.83;24.63;;;;;;;;;;5075613;28;20207;-83
2020/12/14 09:07:43;;;;;;;27.92;25.67;;;;;;;;;;5076037;28;20251;-84
2020/12/14 09:10:17;;;;;;;26.10;24.30;;;;;;;;;;5076139;28;20200;-84
2020/12/14 09:12:44;;;;;;;27.65;25.85;;;;;;;;;;5076133;28;20219;-84
2020/12/14 09:15:11;;;;;;;28.48;26.42;;;;;;;;;;5075251;28;20199;-84
2020/12/14 09:17:37;;;;;;;27.90;25.90;;;;;;;;;;5076569;28;20199;-84
2020/12/14 09:20:09;;;;;;;26.73;24.90;;;;;;;;;;5075808;28;20599;-83
2020/12/14 09:22:36;;;;;;;26.80;24.88;;;;;;;;;;5075529;28;20195;-83
2020/12/14 09:25:04;;;;;;;28.42;25.95;;;;;;;;;;5075763;28;20528;-83
2020/12/14 09:27:31;;;;;;;27.77;25.65;;;;;;;;;;5058070;28;20199;-84
2020/12/14 09:29:57;;;;;;;26.95;24.90;;;;;;;;;;5075316;28;20204;-84
2020/12/14 09:32:25;;;;;;;27.65;25.85;;;;;;;;;;5075003;28;20225;-84
2020/12/14 09:34:52;;;;;;;29.20;26.80;;;;;;;;;;5076007;28;20222;-84
2020/12/14 09:37:26;;;;;;;28.20;26.30;;;;;;;;;;5075592;28;20201;-91
2020/12/14 09:39:53;;;;;;;28.38;26.15;;;;;;;;;;5075071;28;20194;-91
2020/12/14 09:42:20;;;;;;;28.42;25.58;;;;;;;;;;5075372;28;20662;-90
2020/12/14 09:44:47;;;;;;;27.45;25.38;;;;;;;;;;5075508;28;20195;-84
2020/12/14 09:47:14;;;;;;;27.65;25.73;;;;;;;;;;5074957;28;20184;-83
2020/12/14 09:49:41;;;;;;;28.40;26.40;;;;;;;;;;5074252;28;20684;-82
2020/12/14 09:52:07;;;;;;;27.38;25.42;;;;;;;;;;5074368;28;20233;-80
2020/12/14 09:54:35;;;;;;;27.40;25.25;;;;;;;;;;5074658;28;20188;-82
2020/12/14 09:57:02;;;;;;;27.60;25.63;;;;;;;;;;5075524;28;20201;-81
2020/12/14 09:59:29;;;;;;;28.88;26.27;;;;;;;;;;5074628;28;20183;-78
2020/12/14 10:01:56;;;;;;;28.75;26.23;;;;;;;;;;5073915;28;20237;-80
2020/12/14 10:04:23;;;;;;;27.23;25.23;;;;;;;;;;5057419;28;20728;-90
2020/12/14 10:06:50;;;;;;;28.55;26.45;;;;;;;;;;5075268;28;20239;-83
2020/12/14 10:09:17;;;;;;;28.00;25.90;;;;;;;;;;5074071;28;20684;-82
2020/12/14 10:11:44;;;;;;;28.65;26.42;;;;;;;;;;5057007;28;20220;-82
2020/12/14 10:14:11;;;;;;;30.30;28.10;;;;;;;;;;5074928;28;20583;-82
2020/12/14 10:16:38;;;;;;;28.35;26.15;;;;;;;;;;5074250;28;20669;-91
2020/12/14 10:19:06;;;;;;;30.85;28.25;;;;;;;;;;5057262;28;20204;-82
2020/12/14 10:21:32;;;;;;;28.85;26.40;;;;;;;;;;5074696;28;20552;-81
2020/12/14 10:23:59;;;;;;;30.02;27.73;;;;;;;;;;5074128;28;20245;-82
2020/12/14 10:26:26;;;;;;;28.30;26.05;;;;;;;;;;5074191;28;20194;-89
2020/12/14 10:28:54;;;;;;;29.63;27.33;;;;;;;;;;5075001;28;20206;-93
2020/12/14 10:31:21;;;;;;;31.80;28.25;;;;;;;;;;5074198;28;20225;-82
2020/12/14 10:33:48;;;;;;;29.10;27.15;;;;;;;;;;5073941;28;20194;-80
2020/12/14 10:36:18;;;;;;;30.05;27.60;;;;;;;;;;5074159;28;20552;-78
2020/12/14 10:38:46;;;;;;;29.67;27.20;;;;;;;;;;5056156;28;20206;-82
2020/12/14 10:41:13;;;;;;;29.00;26.73;;;;;;;;;;5072668;28;20720;-79
2020/12/14 10:43:40;;;;;;;29.67;27.27;;;;;;;;;;5073278;28;20458;-79
2020/12/14 10:46:08;;;;;;;29.88;27.75;;;;;;;;;;5074022;28;20457;-82
2020/12/14 10:48:35;;;;;;;30.05;28.05;;;;;;;;;;5074057;28;20205;-83
2020/12/14 10:51:01;;;;;;;31.60;28.70;;;;;;;;;;5072575;28;20223;-81
2020/12/14 10:53:28;;;;;;;32.42;29.92;;;;;;;;;;5056693;28;20243;-83
2020/12/14 10:55:56;;;;;;;31.05;28.48;;;;;;;;;;5073415;28;20196;-80
2020/12/14 10:58:24;;;;;;;31.30;29.10;;;;;;;;;;5073973;28;20294;-83
2020/12/14 11:00:51;;;;;;;29.08;27.08;;;;;;;;;;5056008;28;20423;-84
2020/12/14 11:03:23;;;;;;;30.83;28.23;;;;;;;;;;5074029;28;20229;-86
2020/12/14 11:05:52;;;;;;;31.33;28.80;;;;;;;;;;5074105;28;20699;-86
2020/12/14 11:08:19;;;;;;;30.60;28.30;;;;;;;;;;5074051;28;20636;-82
2020/12/14 11:10:45;;;;;;;31.60;29.17;;;;;;;;;;5073968;28;20199;-82
2020/12/14 11:13:12;;;;;;;30.23;27.83;;;;;;;;;;5074410;28;20187;-86
2020/12/14 11:15:40;;;;;;;31.17;28.67;;;;;;;;;;5056620;28;20233;-88
2020/12/14 11:18:06;;;;;;;30.45;28.02;;;;;;;;;;5074071;28;20187;-85
2020/12/14 11:20:34;;;;;;;31.70;29.30;;;;;;;;;;5074286;28;20203;-85
2020/12/14 11:23:02;;;;;;;31.45;29.38;;;;;;;;;;5074454;28;20203;-85
2020/12/14 11:25:29;;;;;;;31.63;29.33;;;;;;;;;;5077388;28;20634;-86
2020/12/14 11:27:55;;;;;;;32.03;29.73;;;;;;;;;;5074898;28;20207;-83
2020/12/14 11:30:22;;;;;;;30.40;28.00;;;;;;;;;;5074502;28;20212;-86
2020/12/14 11:32:49;;;;;;;31.05;28.52;;;;;;;;;;5073784;28;20231;-86
2020/12/14 11:35:16;;;;;;;31.35;28.85;;;;;;;;;;5073815;28;20211;-86
2020/12/14 11:37:44;;;;;;;33.33;30.50;;;;;;;;;;5073698;28;20194;-87
2020/12/14 11:40:12;;;;;;;30.92;28.80;;;;;;;;;;5074131;28;20198;-86
2020/12/14 11:42:39;;;;;;;29.00;27.10;;;;;;;;;;5056449;28;20285;-86
2020/12/14 11:45:09;;;;;;;32.33;29.73;;;;;;;;;;5073798;28;20263;-86
2020/12/14 11:47:36;;;;;;;29.40;27.30;;;;;;;;;;5074345;28;20199;-86
2020/12/14 11:50:03;;;;;;;30.92;28.73;;;;;;;;;;5074426;28;20226;-86
2020/12/14 11:52:29;;;;;;;28.83;26.92;;;;;;;;;;5074308;28;20245;-86
2020/12/14 11:54:57;;;;;;;27.85;25.75;;;;;;;;;;5073955;28;20195;-86
2020/12/14 11:57:24;;;;;;;28.42;26.33;;;;;;;;;;5073722;28;20264;-86
2020/12/14 11:59:51;;;;;;;30.10;27.65;;;;;;;;;;5074103;28;20184;-86
2020/12/14 12:02:18;;;;;;;29.15;27.10;;;;;;;;;;5076202;28;20226;-85
2020/12/14 12:04:46;;;;;;;28.90;26.90;;;;;;;;;;5077444;28;20191;-86
2020/12/14 12:07:13;;;;;;;29.48;27.33;;;;;;;;;;5077401;28;20424;-86
2020/12/14 12:09:41;;;;;;;30.35;28.45;;;;;;;;;;5077471;28;20209;-86
2020/12/14 12:12:09;;;;;;;33.13;31.02;;;;;;;;;;5059916;28;20295;-87
2020/12/14 12:14:38;;;;;;;28.75;26.85;;;;;;;;;;5077861;28;20190;-88
2020/12/14 12:17:04;;;;;;;32.25;30.15;;;;;;;;;;5077352;28;20245;-86
2020/12/14 12:19:31;;;;;;;31.70;29.45;;;;;;;;;;5059612;28;20207;-86
2020/12/14 12:21:59;;;;;;;30.13;28.03;;;;;;;;;;5076870;28;20647;-86
2020/12/14 12:24:26;;;;;;;32.60;30.30;;;;;;;;;;5077256;28;20540;-85
2020/12/14 12:26:53;;;;;;;30.50;28.20;;;;;;;;;;5076834;28;20524;-86
2020/12/14 12:29:21;;;;;;;29.23;27.13;;;;;;;;;;5077085;28;20435;-85
2020/12/14 12:31:51;;;;;;;29.33;27.17;;;;;;;;;;5076713;28;20480;-85
2020/12/14 12:34:18;;;;;;;30.92;28.85;;;;;;;;;;5076958;28;20417;-85
2020/12/14 12:36:49;;;;;;;33.63;30.48;;;;;;;;;;5076853;28;20241;-85
2020/12/14 12:39:16;;;;;;;30.15;28.13;;;;;;;;;;5076600;28;20282;-85
2020/12/14 12:41:45;;;;;;;30.30;27.97;;;;;;;;;;5076626;28;20672;-85
2020/12/14 12:44:12;;;;;;;29.60;27.50;;;;;;;;;;5076942;28;20442;-85
2020/12/14 12:46:40;;;;;;;30.75;28.38;;;;;;;;;;5076680;28;20286;-85
2020/12/14 12:49:07;;;;;;;29.38;27.02;;;;;;;;;;5076533;28;20203;-84
2020/12/14 12:51:33;;;;;;;28.23;26.13;;;;;;;;;;5058752;28;20226;-85
2020/12/14 12:54:01;;;;;;;29.27;27.00;;;;;;;;;;5076828;28;20252;-85
2020/12/14 12:56:29;;;;;;;29.10;26.88;;;;;;;;;;5076633;28;20193;-85
2020/12/14 12:58:56;;;;;;;29.10;26.90;;;;;;;;;;5076660;28;20259;-86
2020/12/14 13:01:23;;;;;;;27.90;26.00;;;;;;;;;;5058515;28;20205;-86
2020/12/14 13:03:51;;;;;;;28.77;26.75;;;;;;;;;;5076355;28;20197;-85
2020/12/14 13:06:18;;;;;;;29.23;27.13;;;;;;;;;;5076564;28;20183;-85
2020/12/14 13:08:45;;;;;;;28.27;26.10;;;;;;;;;;5075961;28;20439;-85
2020/12/14 13:11:12;;;;;;;28.30;26.35;;;;;;;;;;5076404;28;20239;-85
2020/12/14 13:13:39;;;;;;;30.38;28.17;;;;;;;;;;5075554;28;20186;-85
2020/12/14 13:16:05;;;;;;;25.88;24.02;;;;;;;;;;5076089;28;20195;-85
2020/12/14 13:18:33;;;;;;;25.95;24.25;;;;;;;;;;5075776;28;20606;-85
2020/12/14 13:21:00;;;;;;;27.13;25.30;;;;;;;;;;5075962;28;20543;-85
2020/12/14 13:23:27;;;;;;;25.73;24.13;;;;;;;;;;5075790;28;20967;-85
2020/12/14 13:25:54;;;;;;;25.13;23.52;;;;;;;;;;5075732;28;20186;-85
2020/12/14 13:28:21;;;;;;;24.53;23.03;;;;;;;;;;5075810;28;20194;-85
2020/12/14 13:30:48;;;;;;;25.13;23.52;;;;;;;;;;5075513;28;20967;-85
2020/12/14 13:33:15;;;;;;;25.17;23.57;;;;;;;;;;5057821;28;20276;-84
2020/12/14 13:35:42;;;;;;;26.37;24.70;;;;;;;;;;5075364;28;20563;-84
2020/12/14 13:38:10;;;;;;;27.27;25.67;;;;;;;;;;5075411;28;20441;-85
2020/12/14 13:40:37;;;;;;;26.03;24.43;;;;;;;;;;5075327;28;20184;-83
2020/12/14 13:43:04;;;;;;;28.27;26.00;;;;;;;;;;5075956;28;20419;-84
2020/12/14 13:45:31;;;;;;;27.73;25.93;;;;;;;;;;5075509;28;20194;-85
2020/12/14 13:47:59;;;;;;;25.57;23.97;;;;;;;;;;5075461;28;20408;-85
2020/12/14 13:50:25;;;;;;;26.77;24.90;;;;;;;;;;5058393;28;20407;-85
2020/12/14 13:52:52;;;;;;;27.70;26.00;;;;;;;;;;5075047;28;20456;-84
2020/12/14 13:55:20;;;;;;;29.90;27.90;;;;;;;;;;5076172;28;20821;-85
2020/12/14 13:57:47;;;;;;;30.63;28.42;;;;;;;;;;5074986;28;20245;-84
2020/12/14 14:00:14;;;;;;;30.10;28.17;;;;;;;;;;5075104;28;20198;-85
2020/12/14 14:02:41;;;;;;;28.75;26.73;;;;;;;;;;5074759;28;20291;-85
2020/12/14 14:05:08;;;;;;;28.40;26.30;;;;;;;;;;5057532;28;20641;-85
2020/12/14 14:07:35;;;;;;;27.60;25.90;;;;;;;;;;5075036;28;20445;-85
2020/12/14 14:10:04;;;;;;;27.98;26.27;;;;;;;;;;5075053;28;20430;-85
2020/12/14 14:12:31;;;;;;;27.05;25.27;;;;;;;;;;5076538;28;20631;-84
2020/12/14 14:14:58;;;;;;;28.00;26.40;;;;;;;;;;5075592;28;20191;-84
2020/12/14 14:17:25;;;;;;;28.07;26.27;;;;;;;;;;5074832;28;20407;-85
2020/12/14 14:19:52;;;;;;;27.30;25.70;;;;;;;;;;5057520;28;20426;-84
2020/12/14 14:22:19;;;;;;;27.63;25.85;;;;;;;;;;5074772;28;20527;-86